createdAt,value
2018-12-03T00:01:01.028Z,665.1
2018-12-03T00:02:03.190Z,665.4
2018-12-03T00:03:05.346Z,665.4
2018-12-03T00:04:07.766Z,665.2
2018-12-03T00:05:10.198Z,664.9
2018-12-03T00:06:12.358Z,665
2018-12-03T00:07:14.231Z,664.3
2018-12-03T00:08:16.383Z,664.5
2018-12-03T00:09:18.556Z,664.3
2018-12-03T00:10:20.984Z,664.5
2018-12-03T00:11:23.136Z,664.5
2018-12-03T00:12:25.556Z,664.7
2018-12-03T00:13:27.720Z,664.3
2018-12-03T00:14:30.146Z,664.3
2018-12-03T00:15:32.338Z,664.6
2018-12-03T00:16:34.765Z,664.7
2018-12-03T00:17:37.196Z,664.8
2018-12-03T00:18:39.367Z,664.7
2018-12-03T00:19:41.810Z,664.5
2018-12-03T00:20:44.237Z,664.6
2018-12-03T00:21:46.377Z,664.5
2018-12-03T00:22:48.538Z,664.2
2018-12-03T00:23:50.963Z,664.1
2018-12-03T00:24:53.116Z,664.3
2018-12-03T00:25:55.565Z,664.4
2018-12-03T00:26:58.008Z,664.2
2018-12-03T00:28:00.159Z,663.9
2018-12-03T00:29:02.583Z,664.2
2018-12-03T00:30:05.016Z,664.7
2018-12-03T00:31:07.184Z,664.8
2018-12-03T00:32:09.610Z,664.5
2018-12-03T00:33:12.040Z,664.6
2018-12-03T00:34:14.162Z,664.1
2018-12-03T00:35:16.649Z,664.5
2018-12-03T00:36:19.098Z,664.8
2018-12-03T00:37:21.527Z,664.7
2018-12-03T00:38:23.954Z,664.5
2018-12-03T00:39:26.378Z,664
2018-12-03T00:40:28.810Z,664.1
2018-12-03T00:41:30.680Z,663.9
2018-12-03T00:42:33.117Z,664.1
2018-12-03T00:43:35.536Z,664.1
2018-12-03T00:44:37.696Z,664
2018-12-03T00:45:40.116Z,664
2018-12-03T00:46:42.258Z,664.1
2018-12-03T00:47:44.438Z,664.5
2018-12-03T00:48:46.598Z,664.7
2018-12-03T00:49:49.022Z,664.3
2018-12-03T00:50:51.446Z,663.7
2018-12-03T00:51:53.868Z,663.7
2018-12-03T00:52:56.323Z,664.3
2018-12-03T00:53:58.478Z,663.8
2018-12-03T00:55:00.658Z,664.1
2018-12-03T00:56:02.826Z,663.6
2018-12-03T00:57:05.270Z,663.6
2018-12-03T00:58:06.884Z,664.1
2018-12-03T00:59:09.308Z,664.5
2018-12-03T01:00:11.459Z,664.4
2018-12-03T01:01:13.882Z,664.6
2018-12-03T01:02:16.025Z,664.2
2018-12-03T01:03:18.175Z,664.1
2018-12-03T01:04:20.593Z,664.1
2018-12-03T01:05:23.010Z,664
2018-12-03T01:06:25.442Z,664
2018-12-03T01:07:27.872Z,664.1
2018-12-03T01:08:30.306Z,663.9
2018-12-03T01:09:32.736Z,664.2
2018-12-03T01:10:35.178Z,664.2
2018-12-03T01:11:37.340Z,664.5
2018-12-03T01:12:39.759Z,664.2
2018-12-03T01:13:41.920Z,663.9
2018-12-03T01:14:44.345Z,663.7
2018-12-03T01:15:46.775Z,663.9
2018-12-03T01:16:48.938Z,663.4
2018-12-03T01:17:51.358Z,663.7
2018-12-03T01:18:53.783Z,663.5
2018-12-03T01:19:56.217Z,663.4
2018-12-03T01:20:58.636Z,663.4
2018-12-03T01:22:01.064Z,663.5
2018-12-03T01:23:03.486Z,663.2
2018-12-03T01:24:05.628Z,663.4
2018-12-03T01:25:08.047Z,663.4
2018-12-03T01:26:10.478Z,663.7
2018-12-03T01:27:12.338Z,663.7
2018-12-03T01:28:14.762Z,664
2018-12-03T01:29:17.186Z,663.8
2018-12-03T01:30:19.345Z,664.1
2018-12-03T01:31:21.500Z,664.2
2018-12-03T01:32:23.924Z,663.7
2018-12-03T01:33:26.076Z,664.3
2018-12-03T01:34:28.506Z,664
2018-12-03T01:35:30.653Z,664.2
2018-12-03T01:36:32.846Z,664.2
2018-12-03T01:37:34.991Z,664.7
2018-12-03T01:38:37.415Z,664.1
2018-12-03T01:39:39.317Z,663.8
2018-12-03T01:40:41.477Z,664.8
2018-12-03T01:41:43.615Z,665
2018-12-03T01:42:45.766Z,664.6
2018-12-03T01:43:48.229Z,664.7
2018-12-03T01:44:50.653Z,664.8
2018-12-03T01:45:52.523Z,664.6
2018-12-03T01:46:54.667Z,664.8
2018-12-03T01:47:56.557Z,664.6
2018-12-03T01:48:58.407Z,664.7
2018-12-03T01:50:00.833Z,664.1
2018-12-03T01:51:02.979Z,663.8
2018-12-03T01:52:04.853Z,664.5
2018-12-03T01:53:07.274Z,664.5
2018-12-03T01:54:09.434Z,664.7
2018-12-03T01:55:11.595Z,664.9
2018-12-03T01:56:14.034Z,664.8
2018-12-03T01:57:16.493Z,664.9
2018-12-03T01:58:18.916Z,665.4
2018-12-03T01:59:21.332Z,665
2018-12-03T02:00:23.927Z,665.1
2018-12-03T02:01:26.083Z,665.4
2018-12-03T02:02:28.514Z,665.6
2018-12-03T02:03:30.989Z,665.9
2018-12-03T02:04:33.414Z,665.6
2018-12-03T02:05:35.836Z,665.9
2018-12-03T02:06:37.983Z,665.7
2018-12-03T02:07:40.426Z,665.9
2018-12-03T02:08:42.590Z,665.9
2018-12-03T02:09:45.014Z,666.2
2018-12-03T02:10:46.877Z,666.2
2018-12-03T02:11:49.297Z,666
2018-12-03T02:12:51.716Z,666.5
2018-12-03T02:13:53.855Z,665.8
2018-12-03T02:14:56.025Z,666.1
2018-12-03T02:15:58.191Z,666.2
2018-12-03T02:17:00.337Z,666.1
2018-12-03T02:18:02.755Z,666.1
2018-12-03T02:19:05.194Z,665.7
2018-12-03T02:20:07.615Z,665.9
2018-12-03T02:21:10.044Z,666
2018-12-03T02:22:12.468Z,666.3
2018-12-03T02:23:14.899Z,666.7
2018-12-03T02:24:17.335Z,666.5
2018-12-03T02:25:19.756Z,666.4
2018-12-03T02:26:21.924Z,666.7
2018-12-03T02:27:24.346Z,666.7
2018-12-03T02:28:26.222Z,666.6
2018-12-03T02:29:28.375Z,666.4
2018-12-03T02:30:30.530Z,666
2018-12-03T02:31:32.957Z,666.1
2018-12-03T02:32:35.384Z,665.9
2018-12-03T02:33:37.534Z,666
2018-12-03T02:34:39.671Z,665.4
2018-12-03T02:35:41.535Z,665.9
2018-12-03T02:36:43.973Z,665.8
2018-12-03T02:37:46.397Z,665.8
2018-12-03T02:38:48.286Z,666.4
2018-12-03T02:39:50.436Z,666.3
2018-12-03T02:40:52.866Z,665.9
2018-12-03T02:41:55.293Z,665.9
2018-12-03T02:42:57.716Z,665.8
2018-12-03T02:44:00.142Z,665
2018-12-03T02:45:02.558Z,665.3
2018-12-03T02:46:04.985Z,664.6
2018-12-03T02:47:06.865Z,664.9
2018-12-03T02:48:09.289Z,664.5
2018-12-03T02:49:11.724Z,664.6
2018-12-03T02:50:13.877Z,664.3
2018-12-03T02:51:16.294Z,664.5
2018-12-03T02:52:18.724Z,664.9
2018-12-03T02:53:20.884Z,664.1
2018-12-03T02:54:23.037Z,664.1
2018-12-03T02:55:25.468Z,664.6
2018-12-03T02:56:27.897Z,664.6
2018-12-03T02:57:30.335Z,664.8
2018-12-03T02:58:32.506Z,664.5
2018-12-03T02:59:34.677Z,664.8
2018-12-03T03:00:36.837Z,664.5
2018-12-03T03:01:39.268Z,664.6
2018-12-03T03:02:41.711Z,664.6
2018-12-03T03:03:44.138Z,664.8
2018-12-03T03:04:46.400Z,665
2018-12-03T03:05:48.643Z,664.9
2018-12-03T03:06:51.086Z,665.1
2018-12-03T03:07:53.234Z,665.5
2018-12-03T03:08:55.666Z,665.3
2018-12-03T03:09:58.088Z,665.4
2018-12-03T03:11:00.235Z,665.5
2018-12-03T03:12:02.657Z,665.2
2018-12-03T03:13:04.524Z,665.2
2018-12-03T03:14:06.668Z,665.3
2018-12-03T03:15:09.094Z,665.1
2018-12-03T03:16:11.531Z,665.2
2018-12-03T03:17:13.695Z,665
2018-12-03T03:18:16.125Z,665.2
2018-12-03T03:19:18.288Z,665
2018-12-03T03:20:20.704Z,665.3
2018-12-03T03:21:23.126Z,664.4
2018-12-03T03:22:25.551Z,664.2
2018-12-03T03:23:27.709Z,664.4
2018-12-03T03:24:30.126Z,663.4
2018-12-03T03:25:32.290Z,663.7
2018-12-03T03:26:34.756Z,664.3
2018-12-03T03:27:37.267Z,664.1
2018-12-03T03:28:39.145Z,663.9
2018-12-03T03:29:41.561Z,664.5
2018-12-03T03:30:43.711Z,664
2018-12-03T03:31:45.858Z,664.6
2018-12-03T03:32:48.036Z,664.9
2018-12-03T03:33:50.471Z,664.3
2018-12-03T03:34:52.607Z,664.5
2018-12-03T03:35:55.027Z,663.9
2018-12-03T03:36:57.180Z,663.9
2018-12-03T03:37:59.609Z,663.7
2018-12-03T03:39:02.044Z,663.7
2018-12-03T03:40:04.485Z,663.5
2018-12-03T03:41:06.918Z,663
2018-12-03T03:42:09.070Z,663.2
2018-12-03T03:43:11.230Z,663.1
2018-12-03T03:44:13.367Z,663.4
2018-12-03T03:45:15.783Z,663.4
2018-12-03T03:46:18.208Z,663.4
2018-12-03T03:47:20.446Z,663.9
2018-12-03T03:48:22.940Z,663.3
2018-12-03T03:49:25.110Z,663.5
2018-12-03T03:50:27.265Z,663.2
2018-12-03T03:51:29.420Z,663.3
2018-12-03T03:52:31.840Z,663.4
2018-12-03T03:53:33.977Z,663.4
2018-12-03T03:54:36.145Z,663.3
2018-12-03T03:55:38.597Z,663.5
2018-12-03T03:56:41.030Z,663.2
2018-12-03T03:57:43.453Z,663.3
2018-12-03T03:58:45.066Z,663.6
2018-12-03T03:59:47.483Z,663.4
2018-12-03T04:00:49.917Z,663.6
2018-12-03T04:01:52.075Z,663.9
2018-12-03T04:02:54.497Z,663.9
2018-12-03T04:03:56.647Z,663.6
2018-12-03T04:04:58.804Z,664.1
2018-12-03T04:06:01.219Z,664.6
2018-12-03T04:07:03.644Z,664.1
2018-12-03T04:08:06.069Z,663.2
2018-12-03T04:09:08.495Z,664
2018-12-03T04:10:10.927Z,663.7
2018-12-03T04:11:13.347Z,663.7
2018-12-03T04:12:15.774Z,664.2
2018-12-03T04:13:17.648Z,663.9
2018-12-03T04:14:19.814Z,664.1
2018-12-03T04:15:22.232Z,664
2018-12-03T04:16:24.108Z,663.7
2018-12-03T04:17:26.001Z,663.8
2018-12-03T04:18:28.424Z,663.5
2018-12-03T04:19:30.577Z,663.4
2018-12-03T04:20:33.006Z,663.5
2018-12-03T04:21:35.166Z,663.6
2018-12-03T04:22:37.589Z,663.6
2018-12-03T04:23:39.751Z,663.5
2018-12-03T04:24:41.911Z,663.7
2018-12-03T04:25:44.337Z,662.8
2018-12-03T04:26:46.759Z,663.3
2018-12-03T04:27:49.190Z,663.2
2018-12-03T04:28:51.622Z,663.2
2018-12-03T04:29:54.040Z,663.1
2018-12-03T04:30:56.453Z,662.8
2018-12-03T04:31:58.894Z,662.5
2018-12-03T04:33:01.037Z,662.7
2018-12-03T04:34:03.455Z,662.7
2018-12-03T04:35:05.308Z,663
2018-12-03T04:36:07.735Z,662.4
2018-12-03T04:37:10.179Z,662.8
2018-12-03T04:38:12.056Z,662.7
2018-12-03T04:39:14.215Z,662.2
2018-12-03T04:40:16.631Z,662.4
2018-12-03T04:41:19.057Z,662.4
2018-12-03T04:42:21.225Z,662.2
2018-12-03T04:43:23.651Z,662.5
2018-12-03T04:44:25.529Z,662.2
2018-12-03T04:45:27.680Z,662.8
2018-12-03T04:46:29.849Z,662.6
2018-12-03T04:47:32.025Z,662.6
2018-12-03T04:48:34.457Z,662.6
2018-12-03T04:49:36.348Z,663.4
2018-12-03T04:50:38.771Z,662.8
2018-12-03T04:51:40.940Z,663.2
2018-12-03T04:52:43.405Z,663.6
2018-12-03T04:53:45.837Z,664.3
2018-12-03T04:54:48.262Z,663.8
2018-12-03T04:55:50.679Z,664.2
2018-12-03T04:56:52.813Z,664.3
2018-12-03T04:57:55.238Z,665
2018-12-03T04:58:57.662Z,664.7
2018-12-03T04:59:59.816Z,664.6
2018-12-03T05:01:02.258Z,664.6
2018-12-03T05:02:04.671Z,664.5
2018-12-03T05:03:06.817Z,664.1
2018-12-03T05:04:08.976Z,664.6
2018-12-03T05:05:11.402Z,664.6
2018-12-03T05:06:13.545Z,664.4
2018-12-03T05:07:15.976Z,664.7
2018-12-03T05:08:17.855Z,665
2018-12-03T05:09:20.048Z,664.8
2018-12-03T05:10:22.210Z,665.7
2018-12-03T05:11:24.636Z,665.2
2018-12-03T05:12:27.058Z,665.1
2018-12-03T05:13:29.213Z,665.5
2018-12-03T05:14:31.369Z,665
2018-12-03T05:15:33.543Z,665.2
2018-12-03T05:16:35.956Z,664.8
2018-12-03T05:17:38.390Z,664.6
2018-12-03T05:18:40.818Z,664.6
2018-12-03T05:19:43.228Z,664.3
2018-12-03T05:20:45.646Z,663.7
2018-12-03T05:21:48.077Z,663.9
2018-12-03T05:22:50.226Z,663.4
2018-12-03T05:23:52.359Z,663.5
2018-12-03T05:24:54.516Z,664.3
2018-12-03T05:25:56.697Z,664
2018-12-03T05:26:58.588Z,664.3
2018-12-03T05:28:01.025Z,663.9
2018-12-03T05:29:03.457Z,664.2
2018-12-03T05:30:05.610Z,664.4
2018-12-03T05:31:08.035Z,664.1
2018-12-03T05:32:10.168Z,664.1
2018-12-03T05:33:12.619Z,664.4
2018-12-03T05:34:14.779Z,664.1
2018-12-03T05:35:16.940Z,664.1
2018-12-03T05:36:19.103Z,663.8
2018-12-03T05:37:21.525Z,664
2018-12-03T05:38:23.670Z,663.7
2018-12-03T05:39:25.819Z,664
2018-12-03T05:40:28.286Z,663.8
2018-12-03T05:41:29.867Z,663.4
2018-12-03T05:42:31.729Z,663.8
2018-12-03T05:43:34.155Z,664
2018-12-03T05:44:36.576Z,663.3
2018-12-03T05:45:38.999Z,663.5
2018-12-03T05:46:41.418Z,663.1
2018-12-03T05:47:43.564Z,663.7
2018-12-03T05:48:45.998Z,663.6
2018-12-03T05:49:48.429Z,663.6
2018-12-03T05:50:50.859Z,663.6
2018-12-03T05:51:53.288Z,663.7
2018-12-03T05:52:55.705Z,663.6
2018-12-03T05:53:58.136Z,664.2
2018-12-03T05:55:00.308Z,663.9
2018-12-03T05:56:02.496Z,664
2018-12-03T05:57:04.651Z,663.6
2018-12-03T05:58:06.519Z,663.5
2018-12-03T05:59:08.678Z,663.9
2018-12-03T06:00:11.108Z,663.9
2018-12-03T06:01:13.524Z,664.3
2018-12-03T06:02:15.416Z,664
2018-12-03T06:03:17.579Z,664.4
2018-12-03T06:04:19.993Z,664.3
2018-12-03T06:05:22.439Z,663.7
2018-12-03T06:06:24.324Z,663.9
2018-12-03T06:07:26.470Z,663.7
2018-12-03T06:08:28.620Z,664
2018-12-03T06:09:31.047Z,663.6
2018-12-03T06:10:32.638Z,663.8
2018-12-03T06:11:34.555Z,664.1
2018-12-03T06:12:36.694Z,664
2018-12-03T06:13:38.949Z,663.9
2018-12-03T06:14:41.259Z,663.3
2018-12-03T06:15:43.434Z,663.4
2018-12-03T06:16:45.861Z,663.1
2018-12-03T06:17:48.291Z,662.9
2018-12-03T06:18:50.444Z,663.5
2018-12-03T06:19:52.602Z,663.2
2018-12-03T06:20:54.470Z,663.4
2018-12-03T06:21:56.970Z,663.4
2018-12-03T06:22:59.395Z,663.2
2018-12-03T06:24:01.828Z,663.1
2018-12-03T06:25:04.268Z,663.2
2018-12-03T06:26:06.699Z,663.6
2018-12-03T06:27:08.839Z,663.7
2018-12-03T06:28:11.260Z,663.3
2018-12-03T06:29:13.133Z,663.7
2018-12-03T06:30:15.552Z,663.4
2018-12-03T06:31:17.767Z,663
2018-12-03T06:32:20.239Z,662.7
2018-12-03T06:33:22.681Z,662.7
2018-12-03T06:34:25.108Z,662.4
2018-12-03T06:35:27.265Z,663
2018-12-03T06:36:29.415Z,662.3
2018-12-03T06:37:31.586Z,662.1
2018-12-03T06:38:33.728Z,661.9
2018-12-03T06:39:36.158Z,661.5
2018-12-03T06:40:38.297Z,661.3
2018-12-03T06:41:40.457Z,661.1
2018-12-03T06:42:42.898Z,661
2018-12-03T06:43:45.320Z,660.5
2018-12-03T06:44:47.473Z,661
2018-12-03T06:45:49.911Z,660.5
2018-12-03T06:46:52.075Z,660.2
2018-12-03T06:47:54.511Z,660.5
2018-12-03T06:48:56.927Z,660.3
2018-12-03T06:49:59.075Z,660.3
2018-12-03T06:51:01.518Z,660.4
2018-12-03T06:52:03.947Z,660
2018-12-03T06:53:06.379Z,660.9
2018-12-03T06:54:08.829Z,661.1
2018-12-03T06:55:11.270Z,660.5
2018-12-03T06:56:13.420Z,660.7
2018-12-03T06:57:15.853Z,660.7
2018-12-03T06:58:18.009Z,661
2018-12-03T06:59:20.131Z,660.6
2018-12-03T07:00:22.583Z,661.3
2018-12-03T07:01:25.019Z,660.5
2018-12-03T07:02:28.610Z,660.9
2018-12-03T07:03:30.760Z,659.9
2018-12-03T07:04:32.913Z,660.4
2018-12-03T07:05:35.066Z,660.3
2018-12-03T07:06:37.481Z,659.3
2018-12-03T07:07:39.491Z,659.8
2018-12-03T07:08:41.962Z,660.1
2018-12-03T07:09:44.136Z,660.4
2018-12-03T07:10:46.598Z,659.9
2018-12-03T07:11:49.048Z,660.1
2018-12-03T07:12:51.195Z,660.6
2018-12-03T07:13:53.627Z,660.4
2018-12-03T07:14:55.761Z,659.1
2018-12-03T07:15:58.218Z,660
2018-12-03T07:17:00.367Z,660
2018-12-03T07:18:02.256Z,659.3
2018-12-03T07:19:04.136Z,659.9
2018-12-03T07:20:06.552Z,659.1
2018-12-03T07:21:08.978Z,660.1
2018-12-03T07:22:11.399Z,659.4
2018-12-03T07:23:13.278Z,659.2
2018-12-03T07:24:15.697Z,659.4
2018-12-03T07:25:18.136Z,659.2
2018-12-03T07:26:20.054Z,659.1
2018-12-03T07:27:22.205Z,659
2018-12-03T07:28:24.638Z,659.4
2018-12-03T07:29:27.080Z,658.8
2018-12-03T07:30:29.273Z,659
2018-12-03T07:31:31.166Z,659.1
2018-12-03T07:32:33.317Z,659.1
2018-12-03T07:33:35.739Z,658.9
2018-12-03T07:34:38.163Z,658.7
2018-12-03T07:35:40.598Z,658.5
2018-12-03T07:36:43.030Z,659
2018-12-03T07:37:45.462Z,658.5
2018-12-03T07:38:47.888Z,658.8
2018-12-03T07:39:49.768Z,659
2018-12-03T07:40:52.196Z,659.2
2018-12-03T07:41:54.342Z,659.2
2018-12-03T07:42:56.775Z,659.3
2018-12-03T07:43:58.920Z,658.5
2018-12-03T07:45:01.074Z,659.1
2018-12-03T07:46:03.226Z,659.3
2018-12-03T07:47:05.402Z,658.4
2018-12-03T07:48:07.571Z,658.3
2018-12-03T07:49:10.006Z,657.4
2018-12-03T07:50:12.460Z,658
2018-12-03T07:51:14.890Z,657.8
2018-12-03T07:52:17.322Z,657.5
2018-12-03T07:53:19.746Z,657.3
2018-12-03T07:54:22.198Z,657.1
2018-12-03T07:55:24.618Z,657.1
2018-12-03T07:56:26.767Z,657.3
2018-12-03T07:57:29.202Z,657.3
2018-12-03T07:58:31.638Z,658
2018-12-03T07:59:34.163Z,657.2
2018-12-03T08:00:36.622Z,657.2
2018-12-03T08:01:39.042Z,657.7
2018-12-03T08:02:41.196Z,657.6
2018-12-03T08:03:43.344Z,658.9
2018-12-03T08:04:45.270Z,658.3
2018-12-03T08:05:48.876Z,658.8
2018-12-03T08:06:51.310Z,658.6
2018-12-03T08:07:53.734Z,657.6
2018-12-03T08:08:56.158Z,658.2
2018-12-03T08:09:58.578Z,656.7
2018-12-03T08:11:00.721Z,657.6
2018-12-03T08:12:02.978Z,657.7
2018-12-03T08:13:05.004Z,657.4
2018-12-03T08:14:07.138Z,657.2
2018-12-03T08:15:09.045Z,656.6
2018-12-03T08:16:11.199Z,657.2
2018-12-03T08:17:13.619Z,657.2
2018-12-03T08:18:16.048Z,656.8
2018-12-03T08:19:18.203Z,656.9
2018-12-03T08:20:20.625Z,657.2
2018-12-03T08:21:23.049Z,657.7
2018-12-03T08:22:25.499Z,657.5
2018-12-03T08:23:27.393Z,657.2
2018-12-03T08:24:29.807Z,656.9
2018-12-03T08:25:31.963Z,657.4
2018-12-03T08:26:34.128Z,657.4
2018-12-03T08:27:36.289Z,656.9
2018-12-03T08:28:38.725Z,657
2018-12-03T08:29:41.148Z,657.8
2018-12-03T08:30:43.311Z,657.3
2018-12-03T08:31:45.740Z,656.7
2018-12-03T08:32:47.890Z,656.8
2018-12-03T08:33:50.040Z,656.6
2018-12-03T08:34:52.476Z,657.3
2018-12-03T08:35:54.639Z,656.9
2018-12-03T08:36:57.090Z,657.4
2018-12-03T08:39:04.240Z,656.3
2018-12-03T08:40:06.656Z,656.8
2018-12-03T08:41:09.082Z,657
2018-12-03T08:42:11.502Z,657
2018-12-03T08:43:13.920Z,656.9
2018-12-03T08:44:16.352Z,656.4
2018-12-03T08:45:18.527Z,656.7
2018-12-03T08:46:20.945Z,656.5
2018-12-03T08:47:23.371Z,656.3
2018-12-03T08:48:25.260Z,656.6
2018-12-03T08:49:27.439Z,656
2018-12-03T08:50:29.848Z,656.2
2018-12-03T08:51:31.979Z,656.4
2018-12-03T08:52:34.125Z,656
2018-12-03T08:53:36.287Z,656
2018-12-03T08:54:38.448Z,656
2018-12-03T08:55:40.878Z,655.8
2018-12-03T08:56:43.019Z,655.7
2018-12-03T08:57:45.189Z,655.6
2018-12-03T08:58:47.614Z,655.7
2018-12-03T08:59:49.777Z,655.7
2018-12-03T09:00:51.679Z,655.2
2018-12-03T09:01:53.547Z,655.7
2018-12-03T09:02:55.687Z,655.5
2018-12-03T09:03:57.840Z,655.3
2018-12-03T09:04:59.991Z,656
2018-12-03T09:06:02.429Z,655.8
2018-12-03T09:07:04.296Z,655.5
2018-12-03T09:08:06.176Z,655.5
2018-12-03T09:09:08.626Z,655.4
2018-12-03T09:10:11.059Z,655.3
2018-12-03T09:11:13.540Z,655.8
2018-12-03T09:12:15.970Z,655.6
2018-12-03T09:13:18.394Z,655.4
2018-12-03T09:14:20.818Z,654.9
2018-12-03T09:15:22.979Z,655.1
2018-12-03T09:16:25.118Z,654.9
2018-12-03T09:17:27.260Z,654.6
2018-12-03T09:18:29.735Z,654.3
2018-12-03T09:19:32.159Z,654.7
2018-12-03T09:20:34.284Z,654.8
2018-12-03T09:21:36.150Z,654.8
2018-12-03T09:22:38.599Z,654
2018-12-03T09:23:40.492Z,654.7
2018-12-03T09:24:42.654Z,654.7
2018-12-03T09:25:45.090Z,654.5
2018-12-03T09:26:47.258Z,654.6
2018-12-03T09:27:49.680Z,654.4
2018-12-03T09:28:51.842Z,654.2
2018-12-03T09:29:54.272Z,654.1
2018-12-03T09:30:57.879Z,653.9
2018-12-03T09:32:00.074Z,653.8
2018-12-03T09:33:02.232Z,654.2
2018-12-03T09:34:04.658Z,654.9
2018-12-03T09:35:06.822Z,655
2018-12-03T09:36:09.236Z,654.2
2018-12-03T09:37:11.376Z,654.7
2018-12-03T09:38:12.971Z,655
2018-12-03T09:39:15.125Z,654.7
2018-12-03T09:40:17.279Z,654.7
2018-12-03T09:41:19.711Z,654.9
2018-12-03T09:42:21.862Z,655
2018-12-03T09:43:24.299Z,655.1
2018-12-03T09:44:26.194Z,655.3
2018-12-03T09:45:28.631Z,655.2
2018-12-03T09:46:31.059Z,655.6
2018-12-03T09:47:33.485Z,655.3
2018-12-03T09:48:35.911Z,655.6
2018-12-03T09:49:38.326Z,655.9
2018-12-03T09:50:40.456Z,656.2
2018-12-03T09:51:42.630Z,657.3
2018-12-03T09:52:45.069Z,656.8
2018-12-03T09:53:47.217Z,656.9
2018-12-03T09:54:49.392Z,657
2018-12-03T09:55:51.816Z,656.9
2018-12-03T09:56:53.707Z,657.2
2018-12-03T09:57:55.866Z,656.7
2018-12-03T09:58:58.038Z,657.1
2018-12-03T10:00:00.486Z,657.2
2018-12-03T10:01:02.928Z,658
2018-12-03T10:02:05.357Z,658.3
2018-12-03T10:03:07.508Z,658.3
2018-12-03T10:04:09.932Z,658.9
2018-12-03T10:05:12.087Z,658.2
2018-12-03T10:06:14.237Z,658.3
2018-12-03T10:07:16.677Z,659.2
2018-12-03T10:08:18.851Z,658.4
2018-12-03T10:09:21.293Z,658.6
2018-12-03T10:10:23.720Z,658.5
2018-12-03T10:11:25.919Z,658.2
2018-12-03T10:12:28.364Z,658.4
2018-12-03T10:13:30.499Z,658.4
2018-12-03T10:14:32.367Z,658.6
2018-12-03T10:15:34.280Z,658.6
2018-12-03T10:16:36.428Z,658.4
2018-12-03T10:17:38.862Z,657.9
2018-12-03T10:18:41.019Z,657.4
2018-12-03T10:19:43.190Z,658.8
2018-12-03T10:20:45.623Z,658.5
2018-12-03T10:21:47.862Z,657.6
2018-12-03T10:22:49.756Z,658.7
2018-12-03T10:23:52.186Z,658.5
2018-12-03T10:24:54.360Z,659.2
2018-12-03T10:25:56.539Z,658.6
2018-12-03T10:26:58.688Z,659.5
2018-12-03T10:28:01.119Z,659.4
2018-12-03T10:29:03.541Z,659.1
2018-12-03T10:30:05.420Z,659.3
2018-12-03T10:31:07.050Z,659.2
2018-12-03T10:32:09.477Z,659.7
2018-12-03T10:33:11.618Z,659.1
2018-12-03T10:34:14.053Z,659.6
2018-12-03T10:35:16.195Z,659.2
2018-12-03T10:36:18.633Z,660.1
2018-12-03T10:37:20.804Z,660
2018-12-03T10:38:23.230Z,659.6
2018-12-03T10:39:25.659Z,659
2018-12-03T10:40:28.103Z,659.8
2018-12-03T10:41:29.978Z,659.3
2018-12-03T10:42:32.143Z,659.6
2018-12-03T10:43:34.572Z,660.3
2018-12-03T10:44:36.989Z,659
2018-12-03T10:45:39.418Z,659.7
2018-12-03T10:46:41.566Z,659.1
2018-12-03T10:47:43.713Z,659.5
2018-12-03T10:48:46.135Z,659.8
2018-12-03T10:49:48.555Z,660
2018-12-03T10:50:50.980Z,659.9
2018-12-03T10:51:53.398Z,660
2018-12-03T10:52:55.560Z,660
2018-12-03T10:53:57.995Z,660
2018-12-03T10:55:00.129Z,660
2018-12-03T10:56:02.264Z,661
2018-12-03T10:57:04.681Z,660.4
2018-12-03T10:58:07.111Z,660.2
2018-12-03T10:59:09.534Z,660.4
2018-12-03T11:00:11.693Z,660.4
2018-12-03T11:01:13.845Z,660.3
2018-12-03T11:02:16.030Z,660.4
2018-12-03T11:03:18.468Z,660.6
2018-12-03T11:04:20.999Z,660.8
2018-12-03T11:05:23.424Z,660.5
2018-12-03T11:06:25.839Z,660.9
2018-12-03T11:07:28.041Z,660.6
2018-12-03T11:08:31.211Z,659.9
2018-12-03T11:09:35.248Z,660.6
2018-12-03T11:10:37.688Z,661.1
2018-12-03T11:11:40.146Z,661.3
2018-12-03T11:12:42.584Z,660.8
2018-12-03T11:13:44.459Z,660.7
2018-12-03T11:14:46.899Z,661.5
2018-12-03T11:15:49.329Z,661.8
2018-12-03T11:16:51.763Z,661.7
2018-12-03T11:17:54.200Z,661.6
2018-12-03T11:18:56.633Z,661.9
2018-12-03T11:19:59.069Z,662.7
2018-12-03T11:21:01.213Z,662
2018-12-03T11:22:03.357Z,661.3
2018-12-03T11:23:04.956Z,662.3
2018-12-03T11:24:07.129Z,661.7
2018-12-03T11:25:09.296Z,663.1
2018-12-03T11:26:11.448Z,662.3
2018-12-03T11:27:13.885Z,663.2
2018-12-03T11:28:16.351Z,663.1
2018-12-03T11:29:18.789Z,663.1
2018-12-03T11:30:21.221Z,663.2
2018-12-03T11:31:23.380Z,663.4
2018-12-03T11:32:25.545Z,663
2018-12-03T11:33:27.439Z,663.3
2018-12-03T11:34:29.598Z,663.5
2018-12-03T11:35:32.019Z,664.1
2018-12-03T11:36:34.465Z,663.6
2018-12-03T11:37:36.889Z,664.4
2018-12-03T11:38:39.045Z,663.8
2018-12-03T11:39:41.473Z,664.5
2018-12-03T11:40:43.907Z,665.8
2018-12-03T11:41:46.339Z,665.6
2018-12-03T11:42:48.500Z,666.2
2018-12-03T11:43:50.932Z,666.2
2018-12-03T11:44:53.359Z,665.9
2018-12-03T11:45:55.515Z,666
2018-12-03T11:46:57.392Z,666
2018-12-03T11:47:59.813Z,666.9
2018-12-03T11:49:01.695Z,666.5
2018-12-03T11:50:04.120Z,666.4
2018-12-03T11:51:06.285Z,666.9
2018-12-03T11:52:08.714Z,667.2
2018-12-03T11:53:10.572Z,667.5
2018-12-03T11:54:13.022Z,667
2018-12-03T11:55:15.446Z,667.3
2018-12-03T11:56:17.605Z,667.8
2018-12-03T11:57:20.049Z,667.8
2018-12-03T11:58:21.918Z,668.1
2018-12-03T11:59:23.521Z,667.4
2018-12-03T12:00:25.410Z,668.2
2018-12-03T12:01:27.847Z,668.4
2018-12-03T12:02:29.742Z,668.3
2018-12-03T12:03:32.162Z,667.6
2018-12-03T12:04:34.587Z,667.9
2018-12-03T12:05:37.028Z,668.4
2018-12-03T12:06:39.163Z,668.6
2018-12-03T12:08:46.317Z,669.1
2018-12-03T12:09:48.459Z,669.1
2018-12-03T12:10:50.888Z,669.8
2018-12-03T12:11:52.772Z,669.7
2018-12-03T12:12:54.910Z,669.5
2018-12-03T12:13:57.342Z,669.8
2018-12-03T12:14:59.255Z,670.2
2018-12-03T12:16:01.410Z,670.9
2018-12-03T12:17:03.578Z,670.5
2018-12-03T12:18:06.007Z,670.3
2018-12-03T12:19:08.449Z,670.6
2018-12-03T12:20:10.869Z,670.2
2018-12-03T12:21:13.009Z,671.2
2018-12-03T12:22:15.449Z,670
2018-12-03T12:23:17.611Z,670.8
2018-12-03T12:24:19.763Z,670.8
2018-12-03T12:25:21.632Z,670.8
2018-12-03T12:26:23.519Z,671
2018-12-03T12:27:25.930Z,670.6
2018-12-03T12:28:27.539Z,671.6
2018-12-03T12:29:29.704Z,671.6
2018-12-03T12:30:32.129Z,671.7
2018-12-03T12:31:34.563Z,671.5
2018-12-03T12:32:36.999Z,670.6
2018-12-03T12:33:39.425Z,671.1
2018-12-03T12:34:41.595Z,671.3
2018-12-03T12:35:43.765Z,671.2
2018-12-03T12:36:46.197Z,671.7
2018-12-03T12:37:48.128Z,671.6
2018-12-03T12:38:50.272Z,671.7
2018-12-03T12:39:52.707Z,671.9
2018-12-03T12:40:55.129Z,671.9
2018-12-03T12:41:57.280Z,672.6
2018-12-03T12:42:59.721Z,672.2
2018-12-03T12:44:01.871Z,672.8
2018-12-03T12:45:04.029Z,673.1
2018-12-03T12:46:06.462Z,673.2
2018-12-03T12:47:08.345Z,672.8
2018-12-03T12:48:10.776Z,673.4
2018-12-03T12:49:13.209Z,673.6
2018-12-03T12:50:15.107Z,673.1
2018-12-03T12:51:17.550Z,674.3
2018-12-03T12:52:19.713Z,674.6
2018-12-03T12:53:21.616Z,674.4
2018-12-03T12:54:24.050Z,674.5
2018-12-03T12:55:25.645Z,674.6
2018-12-03T12:56:27.529Z,674.9
2018-12-03T12:57:29.965Z,674.7
2018-12-03T12:58:32.398Z,674.7
2018-12-03T12:59:34.559Z,674.7
2018-12-03T13:00:36.163Z,675.5
2018-12-03T13:01:38.348Z,675.7
2018-12-03T13:02:40.518Z,676
2018-12-03T13:03:42.668Z,675.7
2018-12-03T13:04:44.810Z,675.3
2018-12-03T13:05:46.962Z,675.6
2018-12-03T13:06:49.394Z,676
2018-12-03T13:07:51.824Z,675.6
2018-12-03T13:08:54.244Z,675.5
2018-12-03T13:09:56.666Z,676
2018-12-03T13:10:58.548Z,675.3
2018-12-03T13:12:00.430Z,675.6
2018-12-03T13:13:02.595Z,675.1
2018-12-03T13:14:04.745Z,675
2018-12-03T13:15:06.910Z,676.6
2018-12-03T13:16:09.343Z,675.9
2018-12-03T13:17:11.224Z,676.1
2018-12-03T13:18:13.396Z,675.8
2018-12-03T13:19:15.822Z,675.4
2018-12-03T13:20:18.249Z,675.8
2018-12-03T13:21:20.419Z,675.3
2018-12-03T13:22:22.850Z,675.9
2018-12-03T13:23:24.985Z,675.2
2018-12-03T13:24:27.415Z,675.3
2018-12-03T13:25:29.834Z,675.2
2018-12-03T13:26:32.267Z,674.9
2018-12-03T13:27:34.418Z,674.7
2018-12-03T13:28:36.870Z,674.6
2018-12-03T13:29:39.309Z,674.9